Terminal Aerodrome Forecast
Issued by NWS

Home | Current Version | Previous Version | Text Only | Print | Product List | Glossary On
Versions: 1 2 3 4 5 6 7 8 9 10 11 12
000
FTUS42 KMHX 301739
TAFOAJ
TAF
KOAJ 301739Z 3018/3118 VRB05KT P6SM SCT040 OVC150
     FM310000 VRB03KT P6SM SCT025 BKN050
     FM310800 04003KT 5SM BR VCSH BKN015
     FM311400 12007KT P6SM -SHRA BKN025
      AMD LTD TO CLD VIS AND WIND=

USA.gov is the U.S. government's official web portal to all federal, state and local government web resources and services.